createdAt,value
2018-03-04T00:01:45.752Z,55.95
2018-03-04T00:04:14.010Z,53.22
2018-03-04T00:06:43.040Z,59.42
2018-03-04T00:09:11.296Z,56.53
2018-03-04T00:11:40.327Z,68.43
2018-03-04T00:14:08.579Z,60.97
2018-03-04T00:16:36.857Z,59.97
2018-03-04T00:19:05.103Z,59.72
2018-03-04T00:21:33.372Z,59.90
2018-03-04T00:24:01.631Z,65.05
2018-03-04T00:26:29.895Z,64.65
2018-03-04T00:28:58.167Z,63.97
2018-03-04T00:31:26.438Z,64.25
2018-03-04T00:33:54.683Z,60.33
2018-03-04T00:36:22.968Z,56.33
2018-03-04T00:38:51.228Z,59.63
2018-03-04T00:41:19.487Z,56.00
2018-03-04T00:43:47.755Z,55.70
2018-03-04T00:46:16.780Z,56.25
2018-03-04T00:48:45.057Z,51.95
2018-03-04T00:51:13.314Z,55.25
2018-03-04T00:53:41.583Z,51.00
2018-03-04T00:56:09.839Z,51.92
2018-03-04T00:58:38.107Z,53.63
2018-03-04T01:01:06.368Z,56.33
2018-03-04T01:03:34.643Z,56.53
2018-03-04T01:06:02.903Z,53.63
2018-03-04T01:08:31.174Z,51.15
2018-03-04T01:10:59.473Z,54.40
2018-03-04T01:13:27.744Z,55.58
2018-03-04T01:15:56.003Z,53.75
2018-03-04T01:18:24.282Z,49.58
2018-03-04T01:20:52.539Z,51.50
2018-03-04T01:23:20.811Z,52.10
2018-03-04T01:25:49.080Z,51.25
2018-03-04T01:28:17.351Z,55.60
2018-03-04T01:30:46.380Z,53.60
2018-03-04T01:33:14.652Z,57.47
2018-03-04T01:35:43.671Z,56.00
2018-03-04T01:38:11.944Z,55.92
2018-03-04T01:40:41.720Z,53.25
2018-03-04T01:43:09.987Z,59.47
2018-03-04T01:45:38.239Z,60.33
2018-03-04T01:48:07.290Z,57.22
2018-03-04T01:50:35.557Z,54.97
2018-03-04T01:53:03.827Z,62.22
2018-03-04T01:55:32.863Z,55.45
2018-03-04T01:58:01.119Z,58.25
2018-03-04T02:00:30.161Z,61.92
2018-03-04T02:02:58.415Z,61.85
2018-03-04T02:05:27.447Z,58.63
2018-03-04T02:07:55.703Z,60.95
2018-03-04T02:10:25.756Z,58.97
2018-03-04T02:12:54.012Z,59.13
2018-03-04T02:15:22.279Z,64.75
2018-03-04T02:17:50.536Z,59.78
2018-03-04T02:20:18.803Z,57.90
2018-03-04T02:22:47.059Z,62.20
2018-03-04T02:25:15.331Z,60.00
2018-03-04T02:27:43.584Z,65.35
2018-03-04T02:30:11.856Z,61.85
2018-03-04T02:32:40.112Z,56.78
2018-03-04T02:35:10.381Z,66.87
2018-03-04T02:37:38.636Z,63.87
2018-03-04T02:40:06.903Z,60.78
2018-03-04T02:42:35.163Z,62.47
2018-03-04T02:45:03.434Z,69.82
2018-03-04T02:47:31.692Z,64.28
2018-03-04T02:49:59.958Z,70.47
2018-03-04T02:52:28.219Z,64.37
2018-03-04T02:54:56.492Z,67.93
2018-03-04T02:57:24.752Z,71.20
2018-03-04T02:59:53.811Z,67.53
2018-03-04T03:02:22.063Z,71.32
2018-03-04T03:04:50.325Z,72.55
2018-03-04T03:07:18.591Z,67.60
2018-03-04T03:09:46.851Z,74.55
2018-03-04T03:12:15.118Z,74.00
2018-03-04T03:14:43.370Z,78.60
2018-03-04T03:17:11.638Z,70.25
2018-03-04T03:19:40.663Z,72.35
2018-03-04T03:22:08.984Z,72.20
2018-03-04T03:24:37.251Z,71.32
2018-03-04T03:27:06.292Z,70.85
2018-03-04T03:29:34.554Z,69.50
2018-03-04T03:32:03.587Z,74.37
2018-03-04T03:34:31.840Z,73.47
2018-03-04T03:37:00.880Z,76.95
2018-03-04T03:39:29.139Z,68.22
2018-03-04T03:41:58.171Z,74.62
2018-03-04T03:44:26.422Z,72.78
2018-03-04T03:46:54.695Z,73.97
2018-03-04T03:49:22.955Z,71.05
2018-03-04T03:51:51.226Z,72.03
2018-03-04T03:54:19.487Z,71.45
2018-03-04T03:56:48.516Z,67.97
2018-03-04T03:59:16.776Z,69.00
2018-03-04T04:01:45.812Z,68.65
2018-03-04T04:04:14.079Z,64.15
2018-03-04T04:06:44.020Z,69.18
2018-03-04T04:09:12.284Z,66.68
2018-03-04T04:11:40.556Z,67.95
2018-03-04T04:14:08.811Z,66.75
2018-03-04T04:16:37.080Z,65.05
2018-03-04T04:19:05.348Z,66.72
2018-03-04T04:21:34.387Z,63.38
2018-03-04T04:24:02.643Z,67.43
2018-03-04T04:26:31.680Z,67.05
2018-03-04T04:28:59.939Z,64.97
2018-03-04T04:31:28.968Z,65.25
2018-03-04T04:33:57.226Z,68.07
2018-03-04T04:36:26.261Z,65.05
2018-03-04T04:38:54.515Z,70.80
2018-03-04T04:41:22.787Z,76.07
2018-03-04T04:43:51.044Z,64.78
2018-03-04T04:46:19.322Z,68.10
2018-03-04T04:48:47.596Z,66.78
2018-03-04T04:51:15.859Z,69.50
2018-03-04T04:53:44.887Z,65.07
2018-03-04T04:56:13.165Z,70.20
2018-03-04T04:58:42.183Z,69.18
2018-03-04T05:01:10.447Z,69.18
2018-03-04T05:03:38.703Z,68.37
2018-03-04T05:06:06.979Z,69.05
2018-03-04T05:08:35.235Z,71.20
2018-03-04T05:11:03.499Z,76.07
2018-03-04T05:13:31.756Z,69.65
2018-03-04T05:16:00.027Z,66.72
2018-03-04T05:18:28.283Z,67.68
2018-03-04T05:20:57.319Z,73.47
2018-03-04T05:23:25.579Z,69.87
2018-03-04T05:25:53.843Z,77.47
2018-03-04T05:28:22.102Z,76.35
2018-03-04T05:30:50.367Z,74.90
2018-03-04T05:33:18.631Z,69.68
2018-03-04T05:35:46.887Z,73.40
2018-03-04T05:38:15.178Z,69.37
2018-03-04T05:40:43.436Z,67.68
2018-03-04T05:43:11.709Z,67.12
2018-03-04T05:45:39.959Z,72.18
2018-03-04T05:48:08.998Z,72.62
2018-03-04T05:50:37.263Z,70.18
2018-03-04T05:53:05.534Z,70.28
2018-03-04T05:55:34.560Z,75.72
2018-03-04T05:58:02.823Z,74.47
2018-03-04T06:00:31.083Z,69.47
2018-03-04T06:02:59.350Z,70.35
2018-03-04T06:05:27.606Z,71.78
2018-03-04T06:07:56.639Z,69.35
2018-03-04T06:10:24.905Z,72.28
2018-03-04T06:12:53.940Z,72.50
2018-03-04T06:15:22.192Z,72.10
2018-03-04T06:17:51.239Z,67.93
2018-03-04T06:20:19.499Z,68.57
2018-03-04T06:22:47.771Z,72.22
2018-03-04T06:25:16.800Z,73.97
2018-03-04T06:27:45.066Z,70.05
2018-03-04T06:30:14.092Z,74.50
2018-03-04T06:32:42.368Z,69.18
2018-03-04T06:35:10.627Z,75.65
2018-03-04T06:37:38.895Z,74.97
2018-03-04T06:40:07.155Z,71.90
2018-03-04T06:42:35.423Z,68.32
2018-03-04T06:45:03.687Z,74.75
2018-03-04T06:47:31.959Z,66.55
2018-03-04T06:50:01.262Z,68.12
2018-03-04T06:52:30.242Z,67.32
2018-03-04T06:54:58.508Z,69.85
2018-03-04T06:57:26.784Z,65.85
2018-03-04T06:59:56.719Z,65.62
2018-03-04T07:02:24.991Z,68.40
2018-03-04T07:04:54.026Z,61.80
2018-03-04T07:07:22.295Z,64.03
2018-03-04T07:09:51.332Z,65.95
2018-03-04T07:12:19.607Z,66.22
2018-03-04T07:14:47.868Z,61.40
2018-03-04T07:17:16.910Z,59.30
2018-03-04T07:19:45.175Z,57.87
2018-03-04T07:22:14.218Z,59.63
2018-03-04T07:24:42.483Z,61.07
2018-03-04T07:27:10.747Z,55.57
2018-03-04T07:29:39.822Z,57.27
2018-03-04T07:32:08.795Z,52.97
2018-03-04T07:34:37.050Z,54.70
2018-03-04T07:37:06.080Z,56.10
2018-03-04T07:39:34.327Z,50.43
2018-03-04T07:42:02.596Z,53.17
2018-03-04T07:44:30.862Z,51.57
2018-03-04T07:46:59.139Z,54.13
2018-03-04T07:49:27.391Z,54.93
2018-03-04T07:51:55.655Z,56.17
2018-03-04T07:54:23.907Z,52.77
2018-03-04T07:56:52.171Z,55.33
2018-03-04T07:59:20.423Z,53.70
2018-03-04T08:01:49.503Z,55.20
2018-03-04T08:04:18.515Z,53.87
2018-03-04T08:06:46.780Z,52.13
2018-03-04T08:09:15.798Z,56.60
2018-03-04T08:11:44.076Z,52.43
2018-03-04T08:14:13.100Z,53.97
2018-03-04T08:16:41.352Z,52.07
2018-03-04T08:19:10.384Z,55.37
2018-03-04T08:21:38.640Z,58.00
2018-03-04T08:24:07.673Z,56.47
2018-03-04T08:26:54.640Z,54.53
2018-03-04T08:29:22.895Z,61.63
2018-03-04T08:31:51.163Z,55.90
2018-03-04T08:34:19.423Z,54.57
2018-03-04T08:36:47.677Z,56.80
2018-03-04T08:39:15.939Z,60.97
2018-03-04T08:41:44.195Z,56.23
2018-03-04T08:44:13.234Z,58.97
2018-03-04T08:46:41.495Z,56.93
2018-03-04T08:49:10.522Z,58.40
2018-03-04T08:51:38.774Z,61.00
2018-03-04T08:54:07.039Z,57.60
2018-03-04T08:56:35.308Z,57.17
2018-03-04T08:59:03.568Z,51.50
2018-03-04T09:01:31.831Z,55.13
2018-03-04T09:04:00.916Z,51.50
2018-03-04T09:06:29.135Z,55.27
2018-03-04T09:08:58.178Z,51.90
2018-03-04T09:11:26.433Z,53.57
2018-03-04T09:13:55.513Z,50.90
2018-03-04T09:16:23.722Z,49.00
2018-03-04T09:18:52.755Z,50.80
2018-03-04T09:21:21.011Z,49.13
2018-03-04T09:23:50.047Z,51.60
2018-03-04T09:26:21.600Z,48.00
2018-03-04T09:28:50.626Z,47.37
2018-03-04T09:31:18.890Z,46.77
2018-03-04T09:33:47.922Z,50.27
2018-03-04T09:36:16.183Z,47.27
2018-03-04T09:38:45.211Z,48.53
2018-03-04T09:41:13.459Z,47.50
2018-03-04T09:43:42.208Z,47.33
2018-03-04T09:46:10.459Z,47.37
2018-03-04T09:48:41.436Z,43.10
2018-03-04T09:51:09.688Z,44.90
2018-03-04T09:53:37.959Z,46.93
2018-03-04T09:56:08.127Z,41.67
2018-03-04T09:58:37.176Z,39.97
2018-03-04T10:01:05.431Z,40.17
2018-03-04T10:03:33.700Z,41.30
2018-03-04T10:06:02.719Z,38.63
2018-03-04T10:08:31.747Z,38.33
2018-03-04T10:11:00.815Z,36.83
2018-03-04T10:13:29.083Z,40.37
2018-03-04T10:15:57.336Z,38.60
2018-03-04T10:18:25.600Z,38.80
2018-03-04T10:20:53.849Z,35.80
2018-03-04T10:23:22.120Z,37.73
2018-03-04T10:25:50.375Z,40.10
2018-03-04T10:28:18.644Z,38.67
2018-03-04T10:30:48.240Z,44.07
2018-03-04T10:33:16.499Z,39.47
2018-03-04T10:35:54.659Z,41.20
2018-03-04T10:38:22.915Z,39.50
2018-03-04T10:40:51.167Z,42.80
2018-03-04T10:43:29.343Z,39.27
2018-03-04T10:46:14.893Z,39.73
2018-03-04T10:48:43.147Z,39.27
2018-03-04T10:51:12.172Z,39.50
2018-03-04T10:54:00.475Z,38.97
2018-03-04T10:56:32.302Z,34.10
2018-03-04T10:59:01.511Z,35.73
2018-03-04T11:04:45.293Z,35.20
2018-03-04T11:07:14.312Z,35.70
2018-03-04T11:09:42.640Z,34.37
2018-03-04T11:12:10.843Z,34.07
2018-03-04T11:14:39.103Z,31.50
2018-03-04T11:17:07.415Z,31.80
2018-03-04T11:19:38.632Z,33.43
2018-03-04T11:22:06.891Z,30.07
2018-03-04T11:24:35.924Z,30.53
2018-03-04T11:27:04.184Z,31.73
2018-03-04T11:29:33.211Z,34.43
2018-03-04T11:32:01.473Z,35.10
2018-03-04T11:34:30.512Z,34.53
2018-03-04T11:36:58.763Z,37.40
2018-03-04T11:39:27.795Z,39.43
2018-03-04T11:41:56.048Z,38.77
2018-03-04T11:44:24.315Z,35.27
2018-03-04T11:46:52.576Z,34.90
2018-03-04T11:49:20.843Z,34.67
2018-03-04T11:51:49.107Z,34.07
2018-03-04T11:54:18.151Z,37.70
2018-03-04T11:56:46.400Z,34.60
2018-03-04T11:59:14.667Z,38.97
2018-03-04T12:01:42.923Z,37.10
2018-03-04T12:04:11.200Z,36.67
2018-03-04T12:06:39.458Z,36.90
2018-03-04T12:09:08.492Z,34.47
2018-03-04T12:11:36.747Z,34.20
2018-03-04T12:14:05.016Z,33.00
2018-03-04T12:16:33.287Z,32.90
2018-03-04T12:19:01.552Z,32.40
2018-03-04T12:21:29.808Z,31.70
2018-03-04T12:23:58.912Z,30.47
2018-03-04T12:26:27.879Z,36.33
2018-03-04T12:28:56.147Z,31.23
2018-03-04T12:31:24.408Z,31.33
2018-03-04T12:33:53.440Z,29.80
2018-03-04T12:36:21.696Z,30.90
2018-03-04T12:38:50.732Z,31.47
2018-03-04T12:41:18.999Z,31.47
2018-03-04T12:43:48.040Z,31.80
2018-03-04T12:46:16.293Z,37.43
2018-03-04T12:48:44.563Z,30.57
2018-03-04T12:51:13.593Z,36.60
2018-03-04T12:53:41.870Z,30.73
2018-03-04T12:56:10.904Z,27.37
2018-03-04T12:58:39.175Z,29.90
2018-03-04T13:01:07.440Z,29.03
2018-03-04T13:03:36.464Z,29.80
2018-03-04T13:06:04.735Z,28.13
2018-03-04T13:08:33.760Z,27.87
2018-03-04T13:11:02.028Z,28.67
2018-03-04T13:13:31.943Z,29.63
2018-03-04T13:16:00.215Z,26.90
2018-03-04T13:18:28.484Z,29.57
2018-03-04T13:20:56.750Z,27.37
2018-03-04T13:23:25.012Z,26.80
2018-03-04T13:25:54.047Z,31.57
2018-03-04T13:28:22.302Z,25.50
2018-03-04T13:30:51.347Z,29.37
2018-03-04T13:33:19.607Z,28.07
2018-03-04T13:35:48.648Z,31.47
2018-03-04T13:38:16.903Z,31.37
2018-03-04T13:40:45.927Z,30.43
2018-03-04T13:43:14.187Z,31.30
2018-03-04T13:45:43.216Z,33.70
2018-03-04T13:48:11.471Z,36.90
2018-03-04T13:50:39.736Z,37.80
2018-03-04T13:53:07.991Z,39.00
2018-03-04T13:55:36.255Z,41.13
2018-03-04T13:58:05.283Z,39.50
2018-03-04T14:00:33.547Z,37.60
2018-03-04T14:03:02.563Z,38.17
2018-03-04T14:05:30.853Z,39.27
2018-03-04T14:07:59.139Z,37.87
2018-03-04T14:10:28.168Z,33.10
2018-03-04T14:12:56.428Z,36.80
2018-03-04T14:15:25.459Z,37.70
2018-03-04T14:17:53.723Z,37.20
2018-03-04T14:20:21.999Z,38.43
2018-03-04T14:22:50.255Z,36.50
2018-03-04T14:25:18.535Z,32.73
2018-03-04T14:27:46.799Z,35.80
2018-03-04T14:30:15.068Z,33.03
2018-03-04T14:32:44.095Z,36.53
2018-03-04T14:35:12.364Z,34.10
2018-03-04T14:37:41.389Z,33.83
2018-03-04T14:40:09.656Z,35.50
2018-03-04T14:42:38.682Z,36.03
2018-03-04T14:45:06.947Z,31.43
2018-03-04T14:47:35.981Z,30.27
2018-03-04T14:50:04.488Z,33.23
2018-03-04T14:52:32.753Z,32.83
2018-03-04T14:55:01.023Z,36.10
2018-03-04T14:57:30.046Z,30.83
2018-03-04T14:59:58.319Z,29.60
2018-03-04T15:02:27.347Z,31.67
2018-03-04T15:04:55.635Z,29.73
2018-03-04T15:07:23.892Z,26.87
2018-03-04T15:09:52.923Z,29.67
2018-03-04T15:12:21.287Z,25.10
2018-03-04T15:14:49.567Z,28.40
2018-03-04T15:17:17.828Z,27.20
2018-03-04T15:19:46.096Z,26.00
2018-03-04T15:22:14.356Z,26.10
2018-03-04T15:24:42.624Z,27.77
2018-03-04T15:27:10.884Z,25.90
2018-03-04T15:29:39.162Z,25.00
2018-03-04T15:32:07.423Z,26.67
2018-03-04T15:34:35.696Z,20.27
2018-03-04T15:37:03.959Z,23.80
2018-03-04T15:39:32.223Z,25.63
2018-03-04T15:42:00.505Z,24.97
2018-03-04T15:44:28.788Z,26.00
2018-03-04T15:46:57.059Z,23.00
2018-03-04T15:49:25.324Z,23.40
2018-03-04T15:51:54.359Z,23.20
2018-03-04T15:54:24.571Z,22.23
2018-03-04T15:56:53.595Z,22.80
2018-03-04T15:59:21.859Z,23.27
2018-03-04T16:01:50.891Z,23.50
2018-03-04T16:04:21.116Z,22.23
2018-03-04T16:06:49.384Z,23.87
2018-03-04T16:09:19.312Z,27.63
2018-03-04T16:11:51.408Z,25.90
2018-03-04T16:14:19.675Z,30.67
2018-03-04T16:16:48.712Z,26.10
2018-03-04T16:19:16.962Z,29.03
2018-03-04T16:21:45.997Z,29.27
2018-03-04T16:24:14.256Z,28.87
2018-03-04T16:26:43.282Z,29.93
2018-03-04T16:29:11.543Z,31.47
2018-03-04T16:31:39.807Z,30.27
2018-03-04T16:34:08.072Z,33.73
2018-03-04T16:36:36.339Z,32.43
2018-03-04T16:39:04.595Z,32.77
2018-03-04T16:41:32.887Z,33.93
2018-03-04T16:44:02.819Z,35.60
2018-03-04T16:46:33.403Z,36.93
2018-03-04T16:49:01.659Z,35.03
2018-03-04T16:51:30.702Z,37.30
2018-03-04T16:53:58.955Z,38.50
2018-03-04T16:56:27.987Z,37.07
2018-03-04T16:58:56.298Z,37.50
2018-03-04T17:01:26.200Z,38.80
2018-03-04T17:03:54.468Z,36.57
2018-03-04T17:06:24.407Z,42.23
2018-03-04T17:09:05.120Z,39.13
2018-03-04T17:11:37.486Z,39.73
2018-03-04T17:14:06.676Z,40.20
2018-03-04T17:16:34.972Z,41.03
2018-03-04T17:19:03.231Z,37.47
2018-03-04T17:21:31.492Z,39.20
2018-03-04T17:23:59.752Z,43.17
2018-03-04T17:26:28.028Z,39.10
2018-03-04T17:28:56.305Z,39.60
2018-03-04T17:31:25.348Z,40.50
2018-03-04T17:33:53.615Z,37.20
2018-03-04T17:36:21.888Z,40.87
2018-03-04T17:38:50.152Z,40.10
2018-03-04T17:41:18.419Z,39.30
2018-03-04T17:43:46.680Z,37.37
2018-03-04T17:46:14.948Z,39.60
2018-03-04T17:48:43.215Z,36.57
2018-03-04T17:51:12.248Z,32.07
2018-03-04T17:53:40.515Z,36.00
2018-03-04T17:56:09.539Z,32.80
2018-03-04T17:58:37.800Z,37.03
2018-03-04T18:01:06.074Z,36.43
2018-03-04T18:03:34.392Z,34.53
2018-03-04T18:06:02.592Z,33.60
2018-03-04T18:08:30.879Z,39.03
2018-03-04T18:10:59.144Z,41.77
2018-03-04T18:13:28.186Z,37.20
2018-03-04T18:15:56.435Z,39.53
2018-03-04T18:18:25.471Z,43.07
2018-03-04T18:20:53.767Z,43.00
2018-03-04T18:23:22.031Z,37.97
2018-03-04T18:25:51.059Z,43.70
2018-03-04T18:28:19.335Z,45.77
2018-03-04T18:30:47.799Z,39.47
2018-03-04T18:33:16.086Z,43.67
2018-03-04T18:35:44.364Z,39.63
2018-03-04T18:38:12.627Z,50.23
2018-03-04T18:40:40.896Z,41.73
2018-03-04T18:43:09.160Z,41.43
2018-03-04T18:45:38.184Z,36.60
2018-03-04T18:48:06.459Z,41.20
2018-03-04T18:50:35.483Z,42.80
2018-03-04T18:53:03.748Z,43.73
2018-03-04T18:55:32.772Z,39.03
2018-03-04T18:58:01.041Z,42.87
2018-03-04T19:00:30.067Z,35.50
2018-03-04T19:02:58.359Z,36.87
2018-03-04T19:05:26.620Z,35.90
2018-03-04T19:07:55.640Z,34.27
2018-03-04T19:10:23.923Z,37.07
2018-03-04T19:12:52.946Z,38.60
2018-03-04T19:15:21.323Z,40.90
2018-03-04T19:17:49.584Z,44.80
2018-03-04T19:20:17.848Z,42.43
2018-03-04T19:22:46.108Z,45.10
2018-03-04T19:25:14.376Z,45.73
2018-03-04T19:27:42.636Z,40.67
2018-03-04T19:30:10.895Z,42.93
2018-03-04T19:32:39.163Z,42.70
2018-03-04T19:35:07.428Z,42.97
2018-03-04T19:37:36.451Z,44.10
2018-03-04T19:40:04.711Z,40.67
2018-03-04T19:42:33.750Z,39.63
2018-03-04T19:45:02.004Z,37.90
2018-03-04T19:47:31.035Z,40.80
2018-03-04T19:49:59.337Z,40.20
2018-03-04T19:52:27.599Z,40.37
2018-03-04T19:54:55.863Z,40.27
2018-03-04T19:57:24.120Z,43.30
2018-03-04T19:59:52.407Z,42.80
2018-03-04T20:02:20.664Z,44.70
2018-03-04T20:04:48.932Z,41.50
2018-03-04T20:07:17.952Z,43.60
2018-03-04T20:09:46.214Z,34.80
2018-03-04T20:12:14.469Z,42.30
2018-03-04T20:14:42.740Z,41.20
2018-03-04T20:17:11.009Z,41.40
2018-03-04T20:19:39.704Z,39.70
2018-03-04T20:22:07.965Z,43.00
2018-03-04T20:24:36.227Z,38.77
2018-03-04T20:27:04.491Z,43.63
2018-03-04T20:29:32.760Z,38.70
2018-03-04T20:32:01.076Z,39.07
2018-03-04T20:34:29.344Z,39.30
2018-03-04T20:36:57.602Z,38.10
2018-03-04T20:39:26.627Z,37.57
2018-03-04T20:41:54.892Z,39.27
2018-03-04T20:44:23.157Z,35.40
2018-03-04T20:46:51.436Z,37.90
2018-03-04T20:49:19.719Z,36.47
2018-03-04T20:51:47.991Z,36.23
2018-03-04T20:54:16.249Z,38.70
2018-03-04T20:56:45.290Z,39.00
2018-03-04T20:59:13.548Z,38.40
2018-03-04T21:01:41.842Z,33.87
2018-03-04T21:04:10.107Z,34.70
2018-03-04T21:06:39.155Z,33.87
2018-03-04T21:09:07.411Z,33.97
2018-03-04T21:11:36.462Z,34.70
2018-03-04T21:14:04.715Z,28.53
2018-03-04T21:16:32.971Z,30.13
2018-03-04T21:19:01.239Z,29.30
2018-03-04T21:21:29.504Z,29.87
2018-03-04T21:23:57.764Z,25.47
2018-03-04T21:26:26.039Z,28.83
2018-03-04T21:28:55.065Z,30.40
2018-03-04T21:31:23.327Z,26.13
2018-03-04T21:33:51.592Z,29.50
2018-03-04T21:36:19.918Z,27.53
2018-03-04T21:38:48.127Z,28.80
2018-03-04T21:41:16.413Z,28.17
2018-03-04T21:43:44.663Z,30.63
2018-03-04T21:46:12.937Z,25.13
2018-03-04T21:48:41.200Z,34.50
2018-03-04T21:51:09.468Z,28.67
2018-03-04T21:53:37.727Z,30.63
2018-03-04T21:56:06.784Z,30.10
2018-03-04T21:58:35.048Z,28.53
2018-03-04T22:01:03.340Z,29.70
2018-03-04T22:03:31.604Z,30.03
2018-03-04T22:06:00.644Z,26.87
2018-03-04T22:08:28.925Z,30.70
2018-03-04T22:10:57.183Z,27.97
2018-03-04T22:13:26.900Z,26.23
2018-03-04T22:15:55.934Z,29.17
2018-03-04T22:18:24.200Z,28.50
2018-03-04T22:20:53.236Z,27.90
2018-03-04T22:23:21.494Z,28.80
2018-03-04T22:25:50.521Z,25.83
2018-03-04T22:28:18.792Z,24.97
2018-03-04T22:30:47.812Z,25.93
2018-03-04T22:33:16.080Z,24.93
2018-03-04T22:35:45.124Z,25.50
2018-03-04T22:38:13.397Z,30.53
2018-03-04T22:40:41.656Z,23.40
2018-03-04T22:43:09.950Z,23.27
2018-03-04T22:45:38.977Z,24.90
2018-03-04T22:48:07.247Z,24.57
2018-03-04T22:50:36.283Z,22.67
2018-03-04T22:53:04.558Z,22.20
2018-03-04T22:55:33.576Z,22.63
2018-03-04T22:58:01.840Z,22.27
2018-03-04T23:00:30.873Z,21.67
2018-03-04T23:02:59.143Z,24.13
2018-03-04T23:05:27.404Z,22.63
2018-03-04T23:07:55.668Z,23.93
2018-03-04T23:10:23.933Z,23.43
2018-03-04T23:12:52.198Z,21.23
2018-03-04T23:15:21.225Z,22.27
2018-03-04T23:17:49.495Z,21.00
2018-03-04T23:20:17.756Z,21.93
2018-03-04T23:22:46.029Z,22.20
2018-03-04T23:25:14.293Z,25.03
2018-03-04T23:27:42.561Z,21.13
2018-03-04T23:30:10.823Z,23.33
2018-03-04T23:32:39.874Z,21.00
2018-03-04T23:35:09.027Z,18.60
2018-03-04T23:37:37.299Z,23.07
2018-03-04T23:40:05.561Z,20.80
2018-03-04T23:42:33.828Z,19.60
2018-03-04T23:45:02.084Z,16.87
2018-03-04T23:47:30.359Z,22.07
2018-03-04T23:49:58.630Z,19.13
2018-03-04T23:52:26.900Z,17.50
2018-03-04T23:54:55.924Z,19.37
2018-03-04T23:57:24.199Z,24.40
2018-03-04T23:59:52.455Z,31.03
